Time;durP1;ratioP1;P1;durP2;ratioP2;P2;SDS_P1;SDS_P2;PMS_P1;PMS_P2;Temp;Humidity;BMP_temperature;BMP_pressure;BME280_temperature;BME280_humidity;BME280_pressure;Samples;Min_cycle;Max_cycle;Signal;HPM_P1;HPM_P2
2024/01/23 00:00:14;;;;;;;13.85;4.25;;;;;;;;;;4986365;28;20105;-68
2024/01/23 00:02:40;;;;;;;19.70;5.05;;;;;;;;;;4984765;28;20058;-68
2024/01/23 00:05:06;;;;;;;22.60;6.75;;;;;;;;;;5019816;28;20121;-69
2024/01/23 00:07:32;;;;;;;19.70;4.82;;;;;;;;;;4989226;28;20067;-68
2024/01/23 00:09:58;;;;;;;19.88;5.65;;;;;;;;;;4984216;28;20054;-68
2024/01/23 00:12:24;;;;;;;24.30;5.80;;;;;;;;;;4982643;28;20053;-68
2024/01/23 00:14:50;;;;;;;26.23;6.25;;;;;;;;;;4989722;28;20052;-68
2024/01/23 00:17:16;;;;;;;24.90;5.57;;;;;;;;;;4984775;28;20531;-68
2024/01/23 00:19:42;;;;;;;16.30;4.40;;;;;;;;;;4985049;28;20046;-68
2024/01/23 00:22:08;;;;;;;16.30;4.30;;;;;;;;;;5017352;28;20047;-68
2024/01/23 00:24:34;;;;;;;15.52;4.43;;;;;;;;;;4993640;28;20451;-68
2024/01/23 00:27:00;;;;;;;30.42;5.95;;;;;;;;;;4992185;28;20046;-68
2024/01/23 00:29:29;;;;;;;24.52;5.65;;;;;;;;;;4982899;28;20058;-68
2024/01/23 00:31:58;;;;;;;28.77;5.80;;;;;;;;;;4986745;28;20046;-68
2024/01/23 00:34:24;;;;;;;26.58;5.85;;;;;;;;;;4986224;28;20556;-68
2024/01/23 00:36:50;;;;;;;20.42;5.32;;;;;;;;;;4982126;28;20104;-68
2024/01/23 00:39:19;;;;;;;26.27;5.60;;;;;;;;;;4985143;28;20050;-68
2024/01/23 00:41:45;;;;;;;26.48;6.95;;;;;;;;;;4992914;28;20038;-68
2024/01/23 00:44:12;;;;;;;21.65;5.63;;;;;;;;;;5022556;28;20043;-68
2024/01/23 00:46:37;;;;;;;24.30;5.88;;;;;;;;;;4990582;28;20072;-68
2024/01/23 00:49:03;;;;;;;28.35;6.03;;;;;;;;;;5011393;28;20070;-68
2024/01/23 00:51:30;;;;;;;23.05;6.70;;;;;;;;;;5016347;28;20041;-68
2024/01/23 00:53:56;;;;;;;25.40;5.82;;;;;;;;;;4987867;28;20047;-68
2024/01/23 00:56:22;;;;;;;21.75;5.43;;;;;;;;;;4987375;28;20105;-68
2024/01/23 00:58:50;;;;;;;25.27;5.47;;;;;;;;;;5017214;28;20541;-68
2024/01/23 01:01:17;;;;;;;26.17;5.18;;;;;;;;;;4990916;28;20793;-68
2024/01/23 01:03:43;;;;;;;20.80;6.15;;;;;;;;;;4991759;28;20478;-68
2024/01/23 01:06:09;;;;;;;21.60;4.82;;;;;;;;;;4992274;28;20100;-68
2024/01/23 01:08:35;;;;;;;28.67;5.82;;;;;;;;;;4990723;28;20050;-69
2024/01/23 01:11:01;;;;;;;29.13;5.72;;;;;;;;;;4988565;28;20054;-68
2024/01/23 01:13:27;;;;;;;20.75;4.75;;;;;;;;;;4989815;28;20090;-68
2024/01/23 01:15:53;;;;;;;16.75;5.35;;;;;;;;;;4992835;28;20068;-68
2024/01/23 01:18:19;;;;;;;23.23;5.18;;;;;;;;;;4994613;28;20486;-68
2024/01/23 01:20:45;;;;;;;28.95;6.32;;;;;;;;;;5019622;28;20070;-68
2024/01/23 01:23:11;;;;;;;18.60;5.45;;;;;;;;;;4988927;28;20482;-68
2024/01/23 01:25:37;;;;;;;21.70;6.53;;;;;;;;;;4987958;28;20049;-68
2024/01/23 01:28:03;;;;;;;27.00;6.53;;;;;;;;;;4989987;28;20064;-68
2024/01/23 01:30:29;;;;;;;22.02;6.03;;;;;;;;;;5018964;28;20042;-68
2024/01/23 01:32:56;;;;;;;15.25;4.60;;;;;;;;;;4990826;28;20125;-68
2024/01/23 01:35:22;;;;;;;26.58;5.57;;;;;;;;;;4988327;28;20061;-67
2024/01/23 01:37:48;;;;;;;23.33;4.47;;;;;;;;;;4987719;28;20050;-68
2024/01/23 01:40:14;;;;;;;28.58;7.25;;;;;;;;;;4986756;28;20092;-68
2024/01/23 01:42:43;;;;;;;26.15;6.65;;;;;;;;;;4986351;28;20056;-68
2024/01/23 01:45:12;;;;;;;27.92;5.78;;;;;;;;;;5015971;28;20054;-68
2024/01/23 01:47:41;;;;;;;25.83;6.35;;;;;;;;;;4990787;28;20046;-68
2024/01/23 01:50:08;;;;;;;23.85;6.40;;;;;;;;;;4987126;28;20100;-68
2024/01/23 01:52:34;;;;;;;24.77;5.80;;;;;;;;;;4984703;28;20152;-68
2024/01/23 01:55:04;;;;;;;20.08;6.03;;;;;;;;;;4986606;28;20055;-68
2024/01/23 01:57:33;;;;;;;23.58;6.72;;;;;;;;;;4986172;28;20068;-68
2024/01/23 02:00:00;;;;;;;14.65;5.85;;;;;;;;;;5016628;28;20061;-68
2024/01/23 02:02:26;;;;;;;21.42;5.18;;;;;;;;;;4991888;28;20056;-67
2024/01/23 02:04:52;;;;;;;29.67;6.00;;;;;;;;;;4991646;28;20053;-67
2024/01/23 02:07:18;;;;;;;27.40;7.72;;;;;;;;;;4987876;28;20107;-67
2024/01/23 02:09:44;;;;;;;17.27;4.45;;;;;;;;;;4993006;28;20112;-67
2024/01/23 02:12:10;;;;;;;24.63;6.75;;;;;;;;;;4993204;28;20053;-67
2024/01/23 02:14:36;;;;;;;23.33;5.78;;;;;;;;;;4985644;28;20126;-68
2024/01/23 02:17:02;;;;;;;25.80;6.72;;;;;;;;;;4986789;28;20049;-67
2024/01/23 02:19:28;;;;;;;18.15;4.55;;;;;;;;;;4990669;28;20092;-68
2024/01/23 02:21:55;;;;;;;22.35;4.93;;;;;;;;;;4988046;28;20053;-67
2024/01/23 02:24:21;;;;;;;19.65;5.07;;;;;;;;;;4990558;28;20137;-68
2024/01/23 02:26:47;;;;;;;27.60;5.88;;;;;;;;;;4988000;28;20270;-67
2024/01/23 02:29:14;;;;;;;28.17;6.25;;;;;;;;;;5015566;28;20581;-67
2024/01/23 02:31:40;;;;;;;29.92;6.65;;;;;;;;;;4990670;28;20039;-67
2024/01/23 02:34:06;;;;;;;25.75;5.72;;;;;;;;;;4988220;28;20097;-68
2024/01/23 02:36:36;;;;;;;19.63;5.93;;;;;;;;;;4989234;28;20051;-68
2024/01/23 02:39:03;;;;;;;21.25;5.97;;;;;;;;;;4988906;28;20054;-67
2024/01/23 02:41:30;;;;;;;24.05;7.28;;;;;;;;;;4989049;28;20057;-67
2024/01/23 02:43:59;;;;;;;29.08;6.30;;;;;;;;;;5020976;28;20053;-67
2024/01/23 02:46:25;;;;;;;27.23;6.18;;;;;;;;;;4986497;28;20474;-67
2024/01/23 02:48:51;;;;;;;21.25;6.35;;;;;;;;;;4995698;28;20046;-67
2024/01/23 02:51:19;;;;;;;36.70;5.93;;;;;;;;;;5021282;28;20058;-67
2024/01/23 02:53:45;;;;;;;23.55;5.30;;;;;;;;;;4986349;28;20061;-67
2024/01/23 02:56:10;;;;;;;24.48;5.80;;;;;;;;;;4991083;28;20038;-67
2024/01/23 02:58:37;;;;;;;37.92;7.13;;;;;;;;;;4988756;28;20398;-68
2024/01/23 03:01:03;;;;;;;19.52;5.20;;;;;;;;;;4989319;28;20068;-67
2024/01/23 03:03:29;;;;;;;27.27;6.78;;;;;;;;;;4989023;28;20057;-68
2024/01/23 03:05:55;;;;;;;26.20;6.03;;;;;;;;;;4987706;28;20050;-67
2024/01/23 03:08:23;;;;;;;22.70;5.72;;;;;;;;;;4987463;28;20414;-68
2024/01/23 03:10:49;;;;;;;26.15;6.45;;;;;;;;;;4988419;28;20066;-67
2024/01/23 03:13:15;;;;;;;32.83;7.28;;;;;;;;;;4990425;28;20430;-67
2024/01/23 03:15:41;;;;;;;20.30;5.43;;;;;;;;;;4984234;28;20045;-67
2024/01/23 03:18:07;;;;;;;23.55;6.53;;;;;;;;;;4988221;28;20054;-67
2024/01/23 03:20:33;;;;;;;28.25;6.28;;;;;;;;;;4984211;28;20054;-68
2024/01/23 03:23:00;;;;;;;31.58;6.30;;;;;;;;;;4988787;28;20046;-68
2024/01/23 03:25:26;;;;;;;29.85;7.93;;;;;;;;;;5018755;28;20062;-67
2024/01/23 03:27:52;;;;;;;32.47;7.50;;;;;;;;;;4984368;28;20042;-68
2024/01/23 03:30:31;;;;;;;35.25;7.13;;;;;;;;;;4988213;28;20048;-68
2024/01/23 03:32:58;;;;;;;31.50;7.35;;;;;;;;;;4986685;28;20046;-67
2024/01/23 03:35:24;;;;;;;32.03;6.20;;;;;;;;;;4985835;28;20399;-68
2024/01/23 03:37:51;;;;;;;35.20;7.35;;;;;;;;;;4984695;28;20480;-67
2024/01/23 03:40:17;;;;;;;27.75;6.60;;;;;;;;;;4985239;28;20495;-68
2024/01/23 03:42:43;;;;;;;35.13;6.75;;;;;;;;;;4990648;28;20042;-68
2024/01/23 03:45:09;;;;;;;28.58;6.57;;;;;;;;;;4986867;28;20042;-68
2024/01/23 03:47:35;;;;;;;25.55;6.88;;;;;;;;;;4988399;28;20185;-68
2024/01/23 03:50:02;;;;;;;29.50;7.22;;;;;;;;;;4988947;28;20046;-67
2024/01/23 03:52:28;;;;;;;29.58;7.20;;;;;;;;;;4986909;28;20050;-68
2024/01/23 03:54:54;;;;;;;41.58;7.10;;;;;;;;;;4986456;28;20051;-67
2024/01/23 03:57:20;;;;;;;40.15;8.15;;;;;;;;;;4985238;28;20125;-67
2024/01/23 03:59:46;;;;;;;33.08;7.63;;;;;;;;;;5017406;28;20046;-67
2024/01/23 04:02:12;;;;;;;25.02;5.47;;;;;;;;;;4986073;28;20039;-67
2024/01/23 04:04:41;;;;;;;34.72;6.95;;;;;;;;;;4987494;28;20075;-68
2024/01/23 04:07:07;;;;;;;39.00;8.30;;;;;;;;;;4987722;28;20054;-68
2024/01/23 04:09:33;;;;;;;25.52;6.75;;;;;;;;;;4986891;28;20055;-68
2024/01/23 04:11:59;;;;;;;27.58;6.68;;;;;;;;;;4988163;28;20089;-68
2024/01/23 04:14:25;;;;;;;22.80;5.65;;;;;;;;;;4989249;28;20046;-68
2024/01/23 04:16:51;;;;;;;22.10;6.90;;;;;;;;;;4986985;28;20093;-67
2024/01/23 04:19:17;;;;;;;32.70;6.82;;;;;;;;;;4988718;28;20177;-67
2024/01/23 04:21:44;;;;;;;27.65;6.93;;;;;;;;;;4989308;28;20046;-67
2024/01/23 04:24:10;;;;;;;28.35;6.35;;;;;;;;;;4985660;28;20121;-68
2024/01/23 04:26:37;;;;;;;32.40;7.25;;;;;;;;;;4985337;28;20050;-68
2024/01/23 04:29:03;;;;;;;27.55;7.72;;;;;;;;;;4986268;28;20074;-67
2024/01/23 04:31:29;;;;;;;28.33;6.38;;;;;;;;;;4984737;28;20131;-68
2024/01/23 04:33:56;;;;;;;32.45;8.38;;;;;;;;;;5016746;28;20121;-68
2024/01/23 04:36:22;;;;;;;26.15;7.78;;;;;;;;;;4990262;28;20121;-67
2024/01/23 04:38:48;;;;;;;28.35;7.22;;;;;;;;;;4994127;28;20038;-67
2024/01/23 04:41:15;;;;;;;31.90;6.95;;;;;;;;;;4993101;28;20157;-67
2024/01/23 04:43:42;;;;;;;43.15;10.20;;;;;;;;;;4993336;28;20042;-67
2024/01/23 04:46:08;;;;;;;37.88;7.50;;;;;;;;;;4989193;28;20039;-67
2024/01/23 04:48:34;;;;;;;34.28;6.78;;;;;;;;;;4987742;28;20413;-68
2024/01/23 04:51:00;;;;;;;38.65;8.32;;;;;;;;;;4994772;28;20038;-68
2024/01/23 04:53:30;;;;;;;43.08;6.45;;;;;;;;;;4991241;28;20057;-68
2024/01/23 04:55:56;;;;;;;39.63;7.85;;;;;;;;;;4991086;28;20820;-68
2024/01/23 04:58:22;;;;;;;32.10;7.85;;;;;;;;;;4989548;28;20406;-67
2024/01/23 05:00:48;;;;;;;34.85;7.90;;;;;;;;;;4992736;28;20046;-68
2024/01/23 05:03:14;;;;;;;36.05;7.72;;;;;;;;;;4987346;28;20050;-68
2024/01/23 05:05:40;;;;;;;33.63;8.13;;;;;;;;;;4987768;28;20050;-68
2024/01/23 05:08:07;;;;;;;46.60;8.57;;;;;;;;;;4992764;28;20034;-68
2024/01/23 05:10:33;;;;;;;45.30;9.07;;;;;;;;;;4991891;28;20070;-68
2024/01/23 05:13:02;;;;;;;31.95;7.60;;;;;;;;;;4991910;28;20050;-67
2024/01/23 05:15:28;;;;;;;33.00;7.18;;;;;;;;;;4991536;28;20576;-67
2024/01/23 05:17:55;;;;;;;37.00;7.03;;;;;;;;;;4991827;28;20074;-68
2024/01/23 05:20:22;;;;;;;23.45;5.72;;;;;;;;;;4990939;28;20109;-67
2024/01/23 05:22:48;;;;;;;33.28;7.85;;;;;;;;;;4990204;28;20053;-67
2024/01/23 05:25:14;;;;;;;37.42;8.75;;;;;;;;;;4988675;28;20128;-67
2024/01/23 05:27:40;;;;;;;31.67;6.70;;;;;;;;;;4991069;28;20046;-68
2024/01/23 05:30:07;;;;;;;31.05;7.78;;;;;;;;;;4991201;28;20046;-68
2024/01/23 05:32:33;;;;;;;31.83;7.68;;;;;;;;;;4992971;28;20133;-67
2024/01/23 05:35:03;;;;;;;36.28;8.45;;;;;;;;;;4986068;28;20049;-67
2024/01/23 05:37:29;;;;;;;33.95;8.48;;;;;;;;;;4988050;28;20053;-68
2024/01/23 05:39:55;;;;;;;29.67;6.78;;;;;;;;;;4991895;28;20050;-67
2024/01/23 05:42:21;;;;;;;44.53;9.25;;;;;;;;;;4988633;28;20053;-68
2024/01/23 05:44:47;;;;;;;45.35;8.38;;;;;;;;;;4988553;28;20047;-68
2024/01/23 05:47:13;;;;;;;48.78;9.57;;;;;;;;;;4990234;28;20066;-67
2024/01/23 05:49:40;;;;;;;37.50;7.00;;;;;;;;;;4989468;28;20681;-67
2024/01/23 05:52:06;;;;;;;37.03;7.95;;;;;;;;;;4991286;28;20506;-67
2024/01/23 05:54:32;;;;;;;38.75;8.38;;;;;;;;;;4988981;28;20050;-68
2024/01/23 05:56:58;;;;;;;39.97;8.45;;;;;;;;;;4989097;28;20042;-68
2024/01/23 05:59:24;;;;;;;22.23;6.38;;;;;;;;;;4990034;28;20054;-67
2024/01/23 06:01:50;;;;;;;38.08;7.50;;;;;;;;;;4992281;28;20081;-67
2024/01/23 06:04:16;;;;;;;40.35;7.88;;;;;;;;;;4990738;28;20056;-67
2024/01/23 06:06:42;;;;;;;43.17;8.52;;;;;;;;;;4985765;28;20495;-67
2024/01/23 06:09:09;;;;;;;38.67;7.95;;;;;;;;;;4989591;28;20038;-68
2024/01/23 06:11:36;;;;;;;34.83;8.20;;;;;;;;;;4986864;28;20050;-67
2024/01/23 06:14:02;;;;;;;35.88;7.53;;;;;;;;;;4990455;28;20050;-67
2024/01/23 06:16:28;;;;;;;42.88;9.32;;;;;;;;;;4988366;28;20054;-67
2024/01/23 06:18:55;;;;;;;27.65;7.03;;;;;;;;;;4988753;28;20050;-67
2024/01/23 06:21:21;;;;;;;40.03;8.52;;;;;;;;;;4984606;28;20080;-68
2024/01/23 06:23:47;;;;;;;35.10;8.63;;;;;;;;;;4991732;28;20054;-67
2024/01/23 06:26:22;;;;;;;39.60;7.93;;;;;;;;;;4989444;28;20034;-68
2024/01/23 06:28:48;;;;;;;33.38;7.85;;;;;;;;;;4987550;28;20038;-68
2024/01/23 06:31:14;;;;;;;35.97;8.68;;;;;;;;;;4986510;28;20041;-67
2024/01/23 06:33:40;;;;;;;38.13;9.15;;;;;;;;;;4988730;28;20046;-67
2024/01/23 06:36:09;;;;;;;27.48;6.47;;;;;;;;;;5015120;28;20043;-67
2024/01/23 06:38:35;;;;;;;42.80;7.32;;;;;;;;;;4987473;28;20494;-68
2024/01/23 06:41:01;;;;;;;36.95;8.88;;;;;;;;;;4989894;28;20050;-67
2024/01/23 06:43:27;;;;;;;47.75;8.93;;;;;;;;;;4985678;28;20074;-67
2024/01/23 06:45:55;;;;;;;39.60;8.48;;;;;;;;;;4990458;28;20093;-67
2024/01/23 06:48:24;;;;;;;36.92;8.20;;;;;;;;;;4990498;28;20054;-67
2024/01/23 06:50:50;;;;;;;41.42;8.63;;;;;;;;;;5025381;28;20140;-67
2024/01/23 06:53:16;;;;;;;33.92;7.53;;;;;;;;;;4987055;28;20133;-67
2024/01/23 06:55:42;;;;;;;46.03;8.63;;;;;;;;;;4988003;28;20042;-67
2024/01/23 06:58:08;;;;;;;38.58;8.63;;;;;;;;;;4984412;28;20054;-67
2024/01/23 07:00:34;;;;;;;33.10;8.20;;;;;;;;;;4979642;28;20054;-67
2024/01/23 07:03:00;;;;;;;41.88;8.32;;;;;;;;;;5022693;28;20053;-67
2024/01/23 07:05:26;;;;;;;44.22;9.27;;;;;;;;;;4987993;28;20414;-67
2024/01/23 07:07:54;;;;;;;46.05;9.63;;;;;;;;;;4988291;28;20549;-67
2024/01/23 07:10:23;;;;;;;47.75;8.85;;;;;;;;;;4993551;28;20506;-67
2024/01/23 07:12:49;;;;;;;27.65;6.50;;;;;;;;;;4984986;28;20054;-67
2024/01/23 07:15:15;;;;;;;41.28;9.13;;;;;;;;;;4987042;28;20046;-67
2024/01/23 07:17:41;;;;;;;38.15;8.13;;;;;;;;;;4990288;28;20045;-67
2024/01/23 07:20:10;;;;;;;36.13;8.50;;;;;;;;;;4985894;28;20042;-67
2024/01/23 07:22:36;;;;;;;34.38;7.55;;;;;;;;;;4988439;28;20046;-67
2024/01/23 07:25:03;;;;;;;29.10;6.53;;;;;;;;;;4993141;28;20042;-67
2024/01/23 07:27:29;;;;;;;38.50;8.73;;;;;;;;;;4999529;28;20046;-68
2024/01/23 07:29:55;;;;;;;28.42;6.80;;;;;;;;;;4982014;28;20035;-67
2024/01/23 07:32:21;;;;;;;31.40;7.28;;;;;;;;;;5001139;28;20088;-67
2024/01/23 07:34:47;;;;;;;39.67;6.88;;;;;;;;;;4987179;28;20038;-67
2024/01/23 07:37:14;;;;;;;31.70;7.47;;;;;;;;;;4995176;28;20072;-67
2024/01/23 07:39:40;;;;;;;42.13;8.90;;;;;;;;;;4988132;28;20042;-68
2024/01/23 07:42:06;;;;;;;31.20;7.35;;;;;;;;;;4994576;28;20047;-67
2024/01/23 07:44:37;;;;;;;41.28;7.47;;;;;;;;;;4982451;28;20050;-67
2024/01/23 07:47:04;;;;;;;24.15;7.25;;;;;;;;;;4989334;28;20058;-67
2024/01/23 07:49:30;;;;;;;40.63;8.57;;;;;;;;;;4987951;28;20043;-67
2024/01/23 07:51:56;;;;;;;40.83;8.65;;;;;;;;;;4978745;28;20050;-67
2024/01/23 07:54:22;;;;;;;41.45;7.22;;;;;;;;;;5015466;28;20486;-68
2024/01/23 07:56:50;;;;;;;44.17;8.63;;;;;;;;;;4984249;28;20088;-68
2024/01/23 07:59:16;;;;;;;34.30;8.32;;;;;;;;;;4986223;28;20059;-68
2024/01/23 08:01:42;;;;;;;45.45;8.82;;;;;;;;;;4996307;28;20173;-68
2024/01/23 08:04:10;;;;;;;39.40;8.05;;;;;;;;;;4995344;28;20046;-68
2024/01/23 08:06:36;;;;;;;46.47;8.65;;;;;;;;;;4981185;28;20093;-67
2024/01/23 08:09:04;;;;;;;40.40;8.75;;;;;;;;;;4990853;28;20128;-67
2024/01/23 08:11:31;;;;;;;41.50;8.63;;;;;;;;;;4982535;28;20421;-68
2024/01/23 08:13:57;;;;;;;40.97;8.02;;;;;;;;;;4984721;28;20050;-68
2024/01/23 08:16:25;;;;;;;32.55;8.10;;;;;;;;;;4985288;28;20077;-68
2024/01/23 08:18:51;;;;;;;37.10;7.53;;;;;;;;;;4984011;28;20154;-67
2024/01/23 08:21:17;;;;;;;37.90;7.68;;;;;;;;;;4989662;28;20124;-68
2024/01/23 08:23:44;;;;;;;43.90;9.05;;;;;;;;;;4987539;28;20061;-67
2024/01/23 08:26:10;;;;;;;35.50;7.85;;;;;;;;;;4981112;28;20042;-68
2024/01/23 08:28:36;;;;;;;40.00;9.90;;;;;;;;;;4988079;28;20053;-68
2024/01/23 08:31:05;;;;;;;35.35;8.07;;;;;;;;;;5012599;28;20061;-67
2024/01/23 08:33:31;;;;;;;43.53;8.65;;;;;;;;;;4982398;28;20065;-68
2024/01/23 08:35:57;;;;;;;35.88;9.02;;;;;;;;;;4982352;28;20050;-68
2024/01/23 08:38:23;;;;;;;40.03;7.97;;;;;;;;;;4993779;28;20057;-68
2024/01/23 08:40:49;;;;;;;42.88;10.10;;;;;;;;;;4988185;28;21162;-68
2024/01/23 08:43:15;;;;;;;41.83;8.60;;;;;;;;;;4988254;28;20486;-68
2024/01/23 08:45:41;;;;;;;49.85;10.45;;;;;;;;;;5013968;28;20050;-68
2024/01/23 08:48:08;;;;;;;32.28;7.88;;;;;;;;;;4986854;28;20057;-67
2024/01/23 08:50:34;;;;;;;33.72;8.57;;;;;;;;;;4986322;28;20410;-68
2024/01/23 08:53:00;;;;;;;41.47;8.70;;;;;;;;;;4991942;28;20050;-68
2024/01/23 08:55:26;;;;;;;42.63;8.95;;;;;;;;;;4984417;28;20042;-67
2024/01/23 08:57:52;;;;;;;41.45;7.90;;;;;;;;;;4988341;28;20045;-68
2024/01/23 09:00:19;;;;;;;40.78;7.80;;;;;;;;;;4987890;28;20034;-67
2024/01/23 09:02:45;;;;;;;41.22;7.80;;;;;;;;;;4980689;28;20042;-68
2024/01/23 09:05:11;;;;;;;42.60;8.32;;;;;;;;;;4985590;28;20043;-68
2024/01/23 09:07:37;;;;;;;36.28;9.27;;;;;;;;;;4985054;28;20410;-68
2024/01/23 09:10:03;;;;;;;32.65;7.10;;;;;;;;;;4984188;28;20051;-68
2024/01/23 09:12:33;;;;;;;45.92;9.05;;;;;;;;;;4989764;28;20141;-68
2024/01/23 09:14:59;;;;;;;44.90;8.98;;;;;;;;;;4991854;28;20053;-68
2024/01/23 09:17:25;;;;;;;41.67;8.27;;;;;;;;;;4988059;28;21003;-68
2024/01/23 09:19:52;;;;;;;33.65;8.00;;;;;;;;;;4987550;28;20053;-68
2024/01/23 09:22:18;;;;;;;43.72;9.65;;;;;;;;;;4984704;28;20085;-68
2024/01/23 09:24:44;;;;;;;36.83;8.35;;;;;;;;;;4990662;28;20077;-68
2024/01/23 09:27:10;;;;;;;31.15;7.60;;;;;;;;;;4992741;28;20065;-68
2024/01/23 09:29:37;;;;;;;42.03;9.52;;;;;;;;;;4992771;28;20042;-68
2024/01/23 09:32:06;;;;;;;37.65;9.20;;;;;;;;;;4991362;28;20050;-68
2024/01/23 09:34:32;;;;;;;40.28;8.68;;;;;;;;;;4990827;28;20133;-68
2024/01/23 09:36:58;;;;;;;39.70;9.63;;;;;;;;;;4993092;28;20133;-68
2024/01/23 09:39:24;;;;;;;41.13;10.05;;;;;;;;;;4991097;28;20636;-68
2024/01/23 09:41:51;;;;;;;38.40;8.48;;;;;;;;;;4995357;28;20058;-68
2024/01/23 09:44:19;;;;;;;36.22;8.82;;;;;;;;;;4989014;28;20046;-68
2024/01/23 09:46:47;;;;;;;40.13;8.88;;;;;;;;;;4988656;28;20038;-68
2024/01/23 09:49:14;;;;;;;38.95;9.13;;;;;;;;;;4990761;28;20042;-68
2024/01/23 09:51:43;;;;;;;43.10;8.95;;;;;;;;;;4991378;28;20133;-68
2024/01/23 09:54:13;;;;;;;33.80;8.30;;;;;;;;;;4993236;28;20426;-68
2024/01/23 09:56:39;;;;;;;38.55;8.82;;;;;;;;;;4990870;28;20053;-68
2024/01/23 09:59:06;;;;;;;33.85;8.20;;;;;;;;;;4997047;28;20509;-68
2024/01/23 10:01:33;;;;;;;38.58;8.73;;;;;;;;;;4989101;28;20517;-68
2024/01/23 10:04:00;;;;;;;41.30;8.82;;;;;;;;;;4990851;28;20051;-68
2024/01/23 10:06:26;;;;;;;47.83;9.80;;;;;;;;;;4990656;28;20177;-68
2024/01/23 10:08:52;;;;;;;40.30;8.40;;;;;;;;;;4989801;28;20124;-68
2024/01/23 10:11:18;;;;;;;40.65;8.93;;;;;;;;;;4986778;28;20058;-68
2024/01/23 10:13:46;;;;;;;41.58;9.20;;;;;;;;;;4994036;28;20052;-68
2024/01/23 10:16:15;;;;;;;36.50;8.18;;;;;;;;;;4995495;28;20516;-68
2024/01/23 10:18:41;;;;;;;40.83;9.07;;;;;;;;;;4995618;28;20074;-68
2024/01/23 10:21:07;;;;;;;42.47;9.10;;;;;;;;;;4988137;28;20058;-68
2024/01/23 10:23:34;;;;;;;37.85;8.07;;;;;;;;;;4990927;28;20050;-68
2024/01/23 10:26:00;;;;;;;53.15;9.82;;;;;;;;;;4990286;28;20065;-68
2024/01/23 10:28:26;;;;;;;49.92;9.60;;;;;;;;;;4988084;28;20043;-68
2024/01/23 10:30:53;;;;;;;40.50;8.43;;;;;;;;;;4992850;28;20484;-68
2024/01/23 10:33:19;;;;;;;37.90;8.38;;;;;;;;;;4990936;28;20048;-68
2024/01/23 10:35:45;;;;;;;36.78;9.57;;;;;;;;;;4989472;28;20053;-68
2024/01/23 10:38:14;;;;;;;38.85;8.35;;;;;;;;;;4991654;28;20103;-68
2024/01/23 10:40:41;;;;;;;34.20;7.15;;;;;;;;;;4982681;28;20114;-68
2024/01/23 10:43:07;;;;;;;37.67;7.45;;;;;;;;;;5014948;28;20120;-68
2024/01/23 10:45:35;;;;;;;37.83;8.35;;;;;;;;;;4991301;28;20375;-69
2024/01/23 10:48:02;;;;;;;36.83;7.47;;;;;;;;;;4988727;28;20050;-68
2024/01/23 10:50:33;;;;;;;37.45;8.13;;;;;;;;;;4980492;28;20050;-68
2024/01/23 10:53:05;;;;;;;42.55;8.55;;;;;;;;;;4990754;28;20493;-68
2024/01/23 10:55:32;;;;;;;33.03;7.20;;;;;;;;;;4988281;28;20050;-68
2024/01/23 10:58:02;;;;;;;34.63;7.63;;;;;;;;;;5019615;28;20046;-67
2024/01/23 11:00:29;;;;;;;37.50;7.75;;;;;;;;;;4987341;28;20055;-68
2024/01/23 11:03:05;;;;;;;32.28;6.28;;;;;;;;;;4992448;28;20042;-68
2024/01/23 11:05:38;;;;;;;37.15;7.47;;;;;;;;;;4981893;28;20461;-68
2024/01/23 11:08:10;;;;;;;47.92;10.13;;;;;;;;;;4992102;28;20116;-68
2024/01/23 11:10:36;;;;;;;39.47;7.97;;;;;;;;;;4990413;28;20054;-67
2024/01/23 11:13:10;;;;;;;35.22;7.80;;;;;;;;;;4988290;28;20115;-68
2024/01/23 11:15:36;;;;;;;;;;;;;;;;;;4983034;28;20171;-68
2024/01/23 11:18:21;;;;;;;32.25;7.72;;;;;;;;;;4986940;28;20016;-68
2024/01/23 11:21:10;;;;;;;30.38;7.40;;;;;;;;;;4986102;28;20038;-67
2024/01/23 11:23:38;;;;;;;41.58;8.38;;;;;;;;;;4983791;28;20042;-67
2024/01/23 11:26:12;;;;;;;38.35;9.82;;;;;;;;;;4986452;28;20104;-68
2024/01/23 11:28:39;;;;;;;34.33;7.07;;;;;;;;;;5021926;28;20065;-68
2024/01/23 11:31:08;;;;;;;29.85;6.95;;;;;;;;;;4986177;28;20177;-68
2024/01/23 11:33:34;;;;;;;33.05;7.25;;;;;;;;;;4988271;28;20125;-68
2024/01/23 11:36:12;;;;;;;37.10;7.68;;;;;;;;;;4988237;28;20050;-69
2024/01/23 11:38:45;;;;;;;35.10;6.65;;;;;;;;;;4983483;28;20109;-68
2024/01/23 11:41:27;;;;;;;32.05;7.38;;;;;;;;;;4983874;28;20054;-68
2024/01/23 11:44:14;;;;;;;40.60;8.20;;;;;;;;;;5015207;28;20042;-67
2024/01/23 11:46:41;;;;;;;31.73;7.28;;;;;;;;;;4982921;28;20052;-68
2024/01/23 11:49:07;;;;;;;26.45;6.47;;;;;;;;;;4988670;28;20042;-68
2024/01/23 11:51:36;;;;;;;38.45;8.05;;;;;;;;;;4990881;28;20046;-68
2024/01/23 11:54:05;;;;;;;26.42;6.60;;;;;;;;;;4989709;28;20046;-68
2024/01/23 11:56:31;;;;;;;25.85;6.00;;;;;;;;;;4984098;28;20082;-68
2024/01/23 11:58:58;;;;;;;24.48;6.32;;;;;;;;;;4980952;28;20057;-68
2024/01/23 12:01:27;;;;;;;31.55;6.97;;;;;;;;;;4987576;28;20050;-68
2024/01/23 12:03:54;;;;;;;26.58;6.63;;;;;;;;;;4986240;28;20050;-68
2024/01/23 12:06:21;;;;;;;18.67;4.88;;;;;;;;;;4985264;28;20051;-69
2024/01/23 12:08:47;;;;;;;26.42;6.72;;;;;;;;;;4987232;28;20131;-68
2024/01/23 12:11:13;;;;;;;24.48;4.97;;;;;;;;;;4986061;28;20062;-68
2024/01/23 12:13:39;;;;;;;30.02;7.05;;;;;;;;;;4988182;28;20042;-68
2024/01/23 12:16:09;;;;;;;23.60;6.65;;;;;;;;;;4986688;28;20407;-68
2024/01/23 12:18:35;;;;;;;31.85;5.93;;;;;;;;;;4982164;28;20053;-68
2024/01/23 12:21:01;;;;;;;28.50;6.20;;;;;;;;;;4988848;28;20122;-68
2024/01/23 12:23:27;;;;;;;29.80;6.57;;;;;;;;;;4989228;28;20054;-68
2024/01/23 12:25:54;;;;;;;29.83;6.88;;;;;;;;;;4986607;28;20042;-68
2024/01/23 12:28:21;;;;;;;23.17;5.28;;;;;;;;;;4988600;28;20128;-68
2024/01/23 12:30:48;;;;;;;24.90;5.90;;;;;;;;;;4984895;28;20447;-68
2024/01/23 12:33:17;;;;;;;29.15;7.03;;;;;;;;;;4986111;28;20054;-68
2024/01/23 12:35:47;;;;;;;28.52;6.13;;;;;;;;;;4989441;28;20046;-68
2024/01/23 12:38:20;;;;;;;29.48;6.63;;;;;;;;;;4989190;28;20042;-68
2024/01/23 12:40:47;;;;;;;24.33;6.82;;;;;;;;;;4982670;28;20221;-68
2024/01/23 12:43:13;;;;;;;28.52;6.95;;;;;;;;;;4989152;28;20101;-67
2024/01/23 12:45:39;;;;;;;30.55;6.68;;;;;;;;;;4986627;28;20058;-68
2024/01/23 12:48:06;;;;;;;36.40;8.15;;;;;;;;;;4988390;28;20046;-68
2024/01/23 12:50:33;;;;;;;27.77;6.88;;;;;;;;;;4987914;28;20059;-68
2024/01/23 12:52:59;;;;;;;23.20;5.97;;;;;;;;;;4990236;28;20042;-68
2024/01/23 12:55:30;;;;;;;28.65;7.15;;;;;;;;;;4983091;28;20397;-68
2024/01/23 12:57:56;;;;;;;29.10;6.32;;;;;;;;;;4991886;28;20042;-68
2024/01/23 13:00:22;;;;;;;20.77;5.45;;;;;;;;;;4988138;28;20156;-68
2024/01/23 13:02:49;;;;;;;35.45;6.57;;;;;;;;;;4992308;28;20498;-68
2024/01/23 13:05:19;;;;;;;21.10;5.55;;;;;;;;;;4992558;28;20058;-68
2024/01/23 13:07:48;;;;;;;27.15;6.25;;;;;;;;;;4992289;28;20058;-68
2024/01/23 13:10:14;;;;;;;24.60;5.82;;;;;;;;;;4987693;28;20069;-68
2024/01/23 13:12:42;;;;;;;23.63;5.65;;;;;;;;;;4991075;28;20129;-68
2024/01/23 13:15:09;;;;;;;23.23;6.50;;;;;;;;;;4991342;28;20566;-68
2024/01/23 13:17:38;;;;;;;29.50;6.13;;;;;;;;;;4989843;28;20047;-68
2024/01/23 13:20:11;;;;;;;24.83;5.47;;;;;;;;;;4988952;28;20100;-69
2024/01/23 13:22:44;;;;;;;21.53;5.30;;;;;;;;;;4989115;28;20502;-69
2024/01/23 13:25:17;;;;;;;22.75;6.22;;;;;;;;;;4992077;28;20053;-68
2024/01/23 13:27:43;;;;;;;30.48;6.85;;;;;;;;;;4988574;28;20074;-68
2024/01/23 13:30:14;;;;;;;26.27;5.93;;;;;;;;;;4990842;28;20506;-68
2024/01/23 13:32:44;;;;;;;26.92;6.32;;;;;;;;;;4987678;28;20125;-69
2024/01/23 13:35:10;;;;;;;24.67;6.78;;;;;;;;;;4991956;28;20148;-69
2024/01/23 13:37:37;;;;;;;30.17;7.55;;;;;;;;;;4991407;28;20100;-69
2024/01/23 13:40:03;;;;;;;33.90;6.80;;;;;;;;;;4989982;28;20048;-68
2024/01/23 13:42:29;;;;;;;22.15;6.13;;;;;;;;;;4990334;28;20495;-69
2024/01/23 13:44:55;;;;;;;23.35;6.15;;;;;;;;;;4991314;28;20043;-68
2024/01/23 13:47:22;;;;;;;27.92;6.80;;;;;;;;;;4989141;28;20502;-68
2024/01/23 13:49:50;;;;;;;29.65;6.88;;;;;;;;;;4989366;28;20057;-68
2024/01/23 13:52:16;;;;;;;25.30;7.55;;;;;;;;;;4983372;28;20101;-68
2024/01/23 13:54:42;;;;;;;29.55;6.43;;;;;;;;;;4985268;28;20390;-68
2024/01/23 13:57:08;;;;;;;28.13;6.57;;;;;;;;;;4984587;28;20070;-69
2024/01/23 13:59:34;;;;;;;29.13;6.85;;;;;;;;;;4990987;28;20050;-68
2024/01/23 14:02:00;;;;;;;26.75;6.05;;;;;;;;;;4988940;28;20779;-68
2024/01/23 14:04:26;;;;;;;22.02;7.13;;;;;;;;;;4990857;28;20042;-69
2024/01/23 14:06:52;;;;;;;24.95;5.82;;;;;;;;;;4991861;28;20042;-68
2024/01/23 14:09:18;;;;;;;26.30;6.32;;;;;;;;;;4989637;28;20508;-69
2024/01/23 14:11:45;;;;;;;24.02;6.00;;;;;;;;;;4985269;28;20050;-68
2024/01/23 14:14:11;;;;;;;23.38;5.45;;;;;;;;;;4988274;28;20046;-69
2024/01/23 14:16:37;;;;;;;31.05;6.20;;;;;;;;;;4989314;28;20046;-68
2024/01/23 14:19:04;;;;;;;21.08;5.85;;;;;;;;;;4988719;28;20434;-68
2024/01/23 14:21:30;;;;;;;21.75;5.20;;;;;;;;;;4988040;28;20176;-69
2024/01/23 14:23:56;;;;;;;15.95;4.13;;;;;;;;;;4989242;28;20442;-69
2024/01/23 14:26:28;;;;;;;21.88;4.93;;;;;;;;;;4987243;28;20038;-69
2024/01/23 14:28:54;;;;;;;26.20;6.30;;;;;;;;;;4991365;28;20058;-68